Time;durP1;ratioP1;P1;durP2;ratioP2;P2;SDS_P1;SDS_P2;PMS_P1;PMS_P2;Temp;Humidity;BMP_temperature;BMP_pressure;BME280_temperature;BME280_humidity;BME280_pressure;Samples;Min_cycle;Max_cycle;Signal;HPM_P1;HPM_P2
2021/06/26 00:02:15;;;;;;;21.08;12.05;;;;;;;28.32;53.28;99254.63;5071831;28;20077;-75
2021/06/26 00:04:42;;;;;;;21.88;11.65;;;;;;;28.18;53.50;99240.19;5071551;28;20044;-76
2021/06/26 00:07:08;;;;;;;17.33;11.43;;;;;;;27.96;53.55;99221.06;5071419;28;20024;-75
2021/06/26 00:09:33;;;;;;;17.23;11.20;;;;;;;27.99;53.84;99234.84;5071560;28;20560;-76
2021/06/26 00:11:59;;;;;;;17.70;11.10;;;;;;;28.00;54.46;99260.88;5071591;28;20052;-75
2021/06/26 00:14:24;;;;;;;18.13;11.50;;;;;;;27.16;54.54;99147.03;5071511;28;20021;-76
2021/06/26 00:16:50;;;;;;;24.95;11.27;;;;;;;27.62;54.50;99213.28;5070051;28;20028;-76
2021/06/26 00:19:15;;;;;;;19.17;10.98;;;;;;;27.97;54.34;99233.53;5071375;28;20512;-76
2021/06/26 00:21:40;;;;;;;19.92;11.50;;;;;;;27.78;53.99;99199.13;5070100;28;20024;-76
2021/06/26 00:24:06;;;;;;;21.75;11.85;;;;;;;28.07;54.14;99234.13;5071318;28;20021;-75
2021/06/26 00:26:31;;;;;;;21.50;11.57;;;;;;;28.18;53.83;99242.88;5071277;28;20021;-76
2021/06/26 00:28:57;;;;;;;20.63;11.25;;;;;;;28.28;54.01;99256.31;5071269;28;20024;-76
2021/06/26 00:31:22;;;;;;;21.00;11.75;;;;;;;28.29;53.74;99257.94;5071192;28;20024;-76
2021/06/26 00:33:48;;;;;;;17.67;10.63;;;;;;;27.87;53.74;99185.69;5069943;28;20028;-75
2021/06/26 00:36:13;;;;;;;20.38;11.32;;;;;;;28.00;53.56;99211.22;5071160;28;20029;-76
2021/06/26 00:38:39;;;;;;;18.95;10.60;;;;;;;28.31;53.62;99261.16;5071034;28;20032;-77
2021/06/26 00:41:05;;;;;;;22.15;11.13;;;;;;;28.31;53.86;99265.78;5070883;28;20054;-75
2021/06/26 00:43:31;;;;;;;20.08;11.07;;;;;;;28.37;53.53;99259.13;5070783;28;20032;-76
2021/06/26 00:45:58;;;;;;;21.50;11.02;;;;;;;28.36;53.86;99252.91;5069677;28;20020;-75
2021/06/26 00:48:23;;;;;;;20.95;10.85;;;;;;;28.36;53.69;99255.63;5071333;28;20028;-77
2021/06/26 00:50:49;;;;;;;19.13;10.93;;;;;;;28.13;53.86;99219.34;5070892;28;20029;-74
2021/06/26 00:53:14;;;;;;;22.00;11.23;;;;;;;28.00;53.91;99206.59;5070865;28;20078;-75
2021/06/26 00:55:40;;;;;;;24.40;12.00;;;;;;;28.41;53.55;99252.00;5070926;28;20474;-76
2021/06/26 00:58:05;;;;;;;17.42;10.55;;;;;;;28.41;53.76;99258.22;5070902;28;20028;-76
2021/06/26 01:00:32;;;;;;;18.70;12.10;;;;;;;28.17;53.71;99203.28;5069706;28;20085;-76
2021/06/26 01:02:59;;;;;;;17.88;10.32;;;;;;;28.02;53.60;99174.53;5071162;28;20020;-76
2021/06/26 01:05:25;;;;;;;18.38;11.27;;;;;;;28.00;53.53;99176.75;5071172;28;20074;-76
2021/06/26 01:07:52;;;;;;;23.92;12.70;;;;;;;28.23;53.81;99212.13;5070840;28;20024;-76
2021/06/26 01:10:19;;;;;;;19.88;11.38;;;;;;;28.39;53.64;99241.44;5069489;28;20457;-75
2021/06/26 01:12:45;;;;;;;19.48;10.52;;;;;;;28.36;53.72;99233.91;5070627;28;20016;-76
2021/06/26 01:15:13;;;;;;;21.52;10.52;;;;;;;27.92;53.61;99177.44;5070733;28;20525;-76
2021/06/26 01:17:39;;;;;;;21.80;11.15;;;;;;;28.20;53.99;99231.72;5071016;28;20523;-76
2021/06/26 01:20:07;;;;;;;18.48;11.57;;;;;;;28.04;53.72;99204.06;5070749;28;20028;-76
2021/06/26 01:22:36;;;;;;;19.48;11.18;;;;;;;28.05;53.97;99220.06;5069639;28;20109;-75
2021/06/26 01:25:03;;;;;;;16.33;10.75;;;;;;;28.06;53.89;99242.59;5070664;28;20021;-75
2021/06/26 01:27:28;;;;;;;19.92;11.50;;;;;;;27.60;53.72;99199.97;5070467;28;20021;-76
2021/06/26 01:29:54;;;;;;;20.08;10.55;;;;;;;27.76;53.90;99235.81;5070564;28;20520;-76
2021/06/26 01:32:20;;;;;;;21.23;10.95;;;;;;;27.56;53.44;99212.53;5071584;28;20020;-76
2021/06/26 01:34:46;;;;;;;19.90;10.80;;;;;;;27.51;53.40;99239.72;5074311;28;20017;-76
2021/06/26 01:37:13;;;;;;;19.55;10.77;;;;;;;27.24;53.47;99226.84;5073951;28;20028;-76
2021/06/26 01:39:39;;;;;;;20.02;10.90;;;;;;;27.05;53.96;99240.44;5072854;28;20020;-76
2021/06/26 01:42:06;;;;;;;23.25;10.90;;;;;;;27.11;54.44;99236.53;5074089;28;20038;-77
2021/06/26 01:44:31;;;;;;;18.77;11.15;;;;;;;27.26;54.52;99262.59;5073823;28;20107;-76
2021/06/26 01:46:57;;;;;;;22.55;10.55;;;;;;;27.16;54.55;99238.38;5073966;28;20099;-76
2021/06/26 01:49:23;;;;;;;20.63;10.90;;;;;;;26.74;54.36;99155.22;5073749;28;20449;-77
2021/06/26 01:51:48;;;;;;;17.17;10.45;;;;;;;27.33;54.17;99243.25;5073922;28;20031;-76
2021/06/26 01:54:14;;;;;;;17.15;9.90;;;;;;;27.34;54.09;99220.47;5073911;28;20035;-77
2021/06/26 01:56:40;;;;;;;20.15;10.10;;;;;;;27.43;53.83;99224.09;5073771;28;20009;-76
2021/06/26 01:59:06;;;;;;;20.83;10.35;;;;;;;27.46;53.71;99228.94;5073951;28;20138;-77
2021/06/26 02:01:33;;;;;;;18.92;9.13;;;;;;;27.17;53.79;99183.06;5073806;28;20020;-77
2021/06/26 02:03:58;;;;;;;16.63;9.38;;;;;;;27.49;53.89;99236.47;5073659;28;20489;-77
2021/06/26 02:06:24;;;;;;;20.98;10.73;;;;;;;27.14;53.59;99181.75;5073511;28;20051;-76
2021/06/26 02:08:49;;;;;;;16.08;9.40;;;;;;;27.14;53.68;99176.31;5073804;28;20044;-75
2021/06/26 02:11:15;;;;;;;18.77;9.95;;;;;;;27.36;53.70;99199.28;5073730;28;20099;-76
2021/06/26 02:13:40;;;;;;;14.90;9.02;;;;;;;27.12;53.47;99147.91;5073884;28;20025;-77
2021/06/26 02:16:05;;;;;;;18.02;9.27;;;;;;;27.42;53.28;99198.91;5072312;28;20025;-76
2021/06/26 02:18:31;;;;;;;17.92;9.90;;;;;;;27.03;52.97;99153.19;5073361;28;20026;-75
2021/06/26 02:20:56;;;;;;;21.35;9.25;;;;;;;26.95;53.01;99147.63;5072213;28;20386;-76
2021/06/26 02:23:22;;;;;;;16.08;8.95;;;;;;;27.29;53.05;99215.13;5073554;28;20106;-75
2021/06/26 02:25:47;;;;;;;20.65;9.88;;;;;;;26.87;53.12;99168.06;5073341;28;20013;-75
2021/06/26 02:28:13;;;;;;;20.65;8.50;;;;;;;27.13;52.95;99196.41;5073385;28;20017;-77
2021/06/26 02:30:38;;;;;;;16.85;9.15;;;;;;;27.31;52.86;99224.56;5073376;28;20028;-76
2021/06/26 02:33:04;;;;;;;18.92;10.10;;;;;;;27.12;52.96;99230.03;5073120;28;20046;-77
2021/06/26 02:35:29;;;;;;;22.95;8.50;;;;;;;26.95;53.00;99227.00;5073266;28;20024;-75
2021/06/26 02:37:55;;;;;;;19.90;8.77;;;;;;;26.54;53.04;99183.41;5073262;28;20112;-77
2021/06/26 02:40:20;;;;;;;18.67;8.50;;;;;;;26.56;53.09;99182.00;5073066;28;20043;-77
2021/06/26 02:42:46;;;;;;;22.98;9.05;;;;;;;26.56;52.87;99192.84;5072205;28;20028;-76
2021/06/26 02:45:12;;;;;;;18.90;8.57;;;;;;;26.44;53.06;99162.69;5072756;28;20017;-76
2021/06/26 02:47:37;;;;;;;23.70;9.75;;;;;;;26.46;52.66;99174.03;5072678;28;20020;-76
2021/06/26 02:50:05;;;;;;;29.27;9.35;;;;;;;26.92;52.73;99246.53;5071284;28;20025;-76
2021/06/26 02:52:30;;;;;;;22.90;9.32;;;;;;;26.56;52.81;99181.19;5072892;28;20074;-77
2021/06/26 02:54:56;;;;;;;27.60;8.93;;;;;;;26.86;52.75;99220.63;5072803;28;20024;-77
2021/06/26 02:57:21;;;;;;;17.92;8.70;;;;;;;26.94;52.92;99232.72;5072797;28;20462;-76
2021/06/26 02:59:48;;;;;;;20.05;8.50;;;;;;;26.60;52.53;99183.03;5072719;28;20117;-76
2021/06/26 03:02:14;;;;;;;27.75;9.25;;;;;;;26.65;52.54;99206.53;5072767;28;20485;-76
2021/06/26 03:04:40;;;;;;;22.02;8.93;;;;;;;26.91;52.55;99236.81;5072664;28;20028;-74
2021/06/26 03:07:05;;;;;;;24.27;9.65;;;;;;;26.95;52.43;99269.53;5072404;28;20035;-76
2021/06/26 03:09:30;;;;;;;19.40;8.50;;;;;;;26.46;52.54;99174.03;5072345;28;20020;-77
2021/06/26 03:11:56;;;;;;;19.77;8.80;;;;;;;26.75;52.65;99227.25;5072294;28;20028;-76
2021/06/26 03:14:21;;;;;;;19.85;8.32;;;;;;;26.83;52.58;99240.97;5071067;28;20024;-75
2021/06/26 03:16:47;;;;;;;20.40;8.07;;;;;;;26.55;52.48;99199.34;5072171;28;20024;-77
2021/06/26 03:19:14;;;;;;;22.63;8.80;;;;;;;26.88;52.60;99242.81;5072007;28;20016;-77
2021/06/26 03:21:39;;;;;;;22.15;8.95;;;;;;;26.80;52.47;99225.31;5072252;28;20021;-77
2021/06/26 03:24:05;;;;;;;15.45;8.43;;;;;;;26.51;52.85;99184.78;5072431;28;20028;-77
2021/06/26 03:26:33;;;;;;;22.20;9.68;;;;;;;26.69;52.61;99215.69;5070853;28;20116;-77
2021/06/26 03:28:58;;;;;;;22.25;8.45;;;;;;;26.51;52.69;99176.66;5072497;28;20031;-77
2021/06/26 03:31:24;;;;;;;20.80;9.10;;;;;;;26.98;52.60;99256.25;5070737;28;20016;-77
2021/06/26 03:33:50;;;;;;;22.45;9.60;;;;;;;26.83;52.53;99226.63;5071887;28;20389;-77
2021/06/26 03:36:16;;;;;;;21.27;9.10;;;;;;;26.74;52.24;99203.97;5072114;28;20024;-76
2021/06/26 03:38:42;;;;;;;21.75;8.73;;;;;;;26.54;52.29;99186.91;5071838;28;20028;-77
2021/06/26 03:41:07;;;;;;;24.50;10.00;;;;;;;26.64;52.68;99199.50;5071903;28;20028;-77
2021/06/26 03:43:33;;;;;;;16.35;8.65;;;;;;;26.71;52.38;99194.53;5070493;28;20470;-77
2021/06/26 03:45:58;;;;;;;21.33;8.95;;;;;;;27.05;52.34;99239.63;5071767;28;20031;-77
2021/06/26 03:48:23;;;;;;;21.08;9.05;;;;;;;27.05;52.18;99242.34;5070547;28;20032;-77
2021/06/26 03:50:49;;;;;;;21.70;9.25;;;;;;;27.17;52.22;99251.63;5071743;28;20410;-77
2021/06/26 03:53:14;;;;;;;25.13;10.75;;;;;;;26.75;52.25;99175.78;5071928;28;20024;-76
2021/06/26 03:55:50;;;;;;;19.80;9.43;;;;;;;26.90;52.48;99208.09;5071412;28;20021;-77
2021/06/26 03:58:16;;;;;;;20.98;9.13;;;;;;;27.03;52.45;99241.81;5071746;28;20444;-77
2021/06/26 04:00:41;;;;;;;19.23;9.00;;;;;;;27.18;52.30;99263.28;5071620;28;20020;-76
2021/06/26 04:03:08;;;;;;;23.10;9.77;;;;;;;26.80;52.12;99203.63;5071718;28;20086;-76
2021/06/26 04:05:33;;;;;;;26.15;8.98;;;;;;;26.89;52.31;99217.34;5071475;28;20021;-76
2021/06/26 04:07:58;;;;;;;21.17;9.32;;;;;;;26.93;52.37;99229.19;5071565;28;20032;-76
2021/06/26 04:10:26;;;;;;;24.30;10.18;;;;;;;26.63;52.44;99186.25;5071639;28;20028;-76
2021/06/26 04:12:52;;;;;;;23.27;10.10;;;;;;;27.03;52.40;99245.34;5071472;28;20408;-75
2021/06/26 04:15:17;;;;;;;21.40;9.85;;;;;;;27.17;52.53;99262.47;5071396;28;20104;-75
2021/06/26 04:17:43;;;;;;;21.58;10.90;;;;;;;26.47;52.95;99167.50;5071398;28;20052;-76
2021/06/26 04:20:09;;;;;;;24.77;11.13;;;;;;;26.93;53.61;99256.28;5071376;28;20031;-76
2021/06/26 04:22:34;;;;;;;18.88;9.85;;;;;;;26.75;53.88;99240.81;5071315;28;20099;-77
2021/06/26 04:25:00;;;;;;;23.67;10.88;;;;;;;26.90;53.83;99246.03;5071248;28;20103;-77
2021/06/26 04:27:25;;;;;;;19.80;10.57;;;;;;;26.69;53.67;99206.75;5071308;28;20021;-76
2021/06/26 04:29:50;;;;;;;20.65;11.32;;;;;;;26.90;54.06;99229.78;5071105;28;20016;-76
2021/06/26 04:32:16;;;;;;;19.60;11.18;;;;;;;27.04;54.21;99256.97;5071299;28;20107;-77
2021/06/26 04:34:41;;;;;;;24.52;10.73;;;;;;;27.02;54.49;99257.28;5071302;28;20103;-75
2021/06/26 04:37:07;;;;;;;25.25;11.77;;;;;;;26.98;54.45;99247.31;5071046;28;20107;-78
2021/06/26 04:39:33;;;;;;;22.65;11.73;;;;;;;26.56;55.10;99187.44;5070988;28;20103;-76
2021/06/26 04:41:58;;;;;;;23.38;11.80;;;;;;;26.69;54.95;99207.56;5071124;28;20021;-76
2021/06/26 04:44:24;;;;;;;23.95;11.15;;;;;;;27.05;55.20;99250.47;5069757;28;20462;-77
2021/06/26 04:46:49;;;;;;;26.67;12.85;;;;;;;26.68;55.80;99205.16;5070923;28;20028;-77
2021/06/26 04:49:14;;;;;;;22.98;11.80;;;;;;;26.96;55.71;99249.47;5070928;28;20027;-77
2021/06/26 04:51:40;;;;;;;19.83;11.38;;;;;;;27.10;55.78;99272.06;5071237;28;20105;-76
2021/06/26 04:54:05;;;;;;;20.95;12.18;;;;;;;27.04;55.70;99251.56;5071246;28;20016;-76
2021/06/26 04:56:31;;;;;;;18.38;12.02;;;;;;;26.90;55.71;99213.53;5071059;28;20021;-76
2021/06/26 04:58:57;;;;;;;22.70;12.20;;;;;;;27.30;55.67;99270.97;5071159;28;20020;-76
2021/06/26 05:01:22;;;;;;;26.73;13.98;;;;;;;27.02;56.00;99232.06;5071054;28;20086;-77
2021/06/26 05:03:47;;;;;;;23.17;12.45;;;;;;;27.19;56.07;99254.84;5071021;28;20086;-77
2021/06/26 05:06:13;;;;;;;24.42;12.93;;;;;;;27.29;56.43;99285.59;5071411;28;20028;-76
2021/06/26 05:08:38;;;;;;;22.92;12.43;;;;;;;27.22;57.01;99297.63;5074453;28;20031;-77
2021/06/26 05:11:05;;;;;;;23.23;12.73;;;;;;;27.27;57.15;99296.75;5073422;28;20043;-76
2021/06/26 05:13:31;;;;;;;22.50;12.90;;;;;;;27.03;57.28;99250.75;5074692;28;20029;-76
2021/06/26 05:15:56;;;;;;;24.05;13.75;;;;;;;27.14;57.75;99263.06;5074811;28;20074;-76
2021/06/26 05:18:22;;;;;;;30.48;13.25;;;;;;;26.99;57.41;99228.06;5074688;28;20025;-75
2021/06/26 05:20:47;;;;;;;18.58;12.38;;;;;;;27.61;56.93;99312.00;5074571;28;20070;-77
2021/06/26 05:23:17;;;;;;;21.83;11.18;;;;;;;27.28;56.39;99276.66;5074314;28;20394;-76
2021/06/26 05:25:43;;;;;;;15.45;10.75;;;;;;;27.54;55.88;99321.31;5074485;28;20028;-76
2021/06/26 05:28:10;;;;;;;20.88;11.63;;;;;;;27.33;55.65;99262.22;5074464;28;20027;-77
2021/06/26 05:30:36;;;;;;;23.88;11.93;;;;;;;27.76;56.19;99312.56;5073120;28;20473;-77
2021/06/26 05:33:03;;;;;;;23.67;12.40;;;;;;;27.81;56.46;99323.34;5074436;28;20484;-76
2021/06/26 05:35:28;;;;;;;23.15;13.63;;;;;;;27.30;57.13;99225.66;5074363;28;20095;-78
2021/06/26 05:37:54;;;;;;;20.92;13.90;;;;;;;27.60;57.36;99269.69;5074424;28;20468;-77
2021/06/26 05:40:19;;;;;;;23.02;14.63;;;;;;;27.74;57.78;99282.22;5074127;28;20028;-78
2021/06/26 05:42:44;;;;;;;25.73;16.05;;;;;;;27.58;58.01;99256.44;5074389;28;20035;-77
2021/06/26 05:45:10;;;;;;;23.55;17.13;;;;;;;27.66;58.05;99244.13;5074147;28;20028;-76
2021/06/26 05:47:36;;;;;;;21.42;15.38;;;;;;;27.72;58.31;99251.88;5074040;28;20107;-76
2021/06/26 05:50:01;;;;;;;25.02;15.63;;;;;;;27.95;58.21;99281.88;5074044;28;20101;-76
2021/06/26 05:52:26;;;;;;;17.25;15.23;;;;;;;28.10;58.43;99308.72;5074217;28;20055;-76
2021/06/26 05:54:52;;;;;;;23.23;17.90;;;;;;;28.00;58.26;99285.28;5074036;28;20056;-76
2021/06/26 05:57:18;;;;;;;31.88;18.00;;;;;;;27.95;57.99;99287.28;5072496;28;20027;-77
2021/06/26 05:59:44;;;;;;;20.23;17.23;;;;;;;27.89;58.59;99289.28;5073917;28;20020;-75
2021/06/26 06:02:12;;;;;;;26.10;15.60;;;;;;;27.50;58.26;99217.22;5073816;28;20515;-77
2021/06/26 06:04:39;;;;;;;23.95;15.75;;;;;;;27.94;57.92;99285.69;5073907;28;20023;-76
2021/06/26 06:07:04;;;;;;;27.08;17.25;;;;;;;27.82;57.67;99248.19;5073706;28;20032;-76
2021/06/26 06:09:29;;;;;;;18.80;15.75;;;;;;;28.39;57.54;99322.09;5073836;28;20073;-76
2021/06/26 06:11:55;;;;;;;27.90;15.65;;;;;;;28.20;57.10;99288.75;5073749;28;20104;-76
2021/06/26 06:14:20;;;;;;;25.42;14.43;;;;;;;28.37;56.58;99324.31;5073542;28;20020;-76
2021/06/26 06:16:45;;;;;;;22.20;14.32;;;;;;;28.12;56.65;99311.94;5072317;28;20529;-77
2021/06/26 06:19:11;;;;;;;23.88;15.25;;;;;;;28.04;56.46;99301.78;5073285;28;20131;-76
2021/06/26 06:21:36;;;;;;;23.73;13.75;;;;;;;28.24;56.40;99365.78;5073524;28;20021;-77
2021/06/26 06:24:02;;;;;;;22.85;13.82;;;;;;;28.11;56.37;99353.78;5073567;28;20023;-77
2021/06/26 06:26:27;;;;;;;20.33;13.75;;;;;;;27.66;56.31;99293.75;5073307;28;20124;-75
2021/06/26 06:28:53;;;;;;;22.67;14.63;;;;;;;27.85;55.83;99339.84;5073344;28;20033;-77
2021/06/26 06:31:18;;;;;;;29.23;13.85;;;;;;;28.12;55.92;99383.34;5073125;28;20020;-77
2021/06/26 06:33:43;;;;;;;25.88;13.60;;;;;;;28.07;55.85;99371.75;5073107;28;20028;-75
2021/06/26 06:36:09;;;;;;;32.90;14.52;;;;;;;27.72;56.23;99291.75;5071658;28;20020;-77
2021/06/26 06:38:35;;;;;;;34.42;17.88;;;;;;;27.72;57.86;99270.88;5073166;28;20024;-77
2021/06/26 06:41:00;;;;;;;50.58;22.67;;;;;;;27.45;59.68;99270.72;5072799;28;20039;-78
2021/06/26 06:43:26;;;;;;;37.15;20.67;;;;;;;27.76;60.47;99369.53;5071759;28;20035;-78
2021/06/26 06:45:51;;;;;;;33.58;19.48;;;;;;;27.07;61.03;99324.94;5071613;28;20060;-77
2021/06/26 06:48:16;;;;;;;33.78;19.80;;;;;;;26.98;61.37;99375.47;5072645;28;20105;-78
2021/06/26 06:50:42;;;;;;;33.13;18.17;;;;;;;26.79;61.46;99402.47;5072952;28;20029;-77
2021/06/26 06:53:08;;;;;;;28.77;18.65;;;;;;;26.65;61.87;99423.19;5072748;28;20025;-78
2021/06/26 06:55:33;;;;;;;28.40;22.38;;;;;;;26.42;62.31;99397.69;5072702;28;20016;-77
2021/06/26 06:57:59;;;;;;;34.72;25.73;;;;;;;26.79;62.86;99466.69;5072544;28;20081;-78
2021/06/26 07:00:25;;;;;;;31.13;25.50;;;;;;;26.51;63.11;99414.94;5072627;28;20409;-77
2021/06/26 07:02:50;;;;;;;30.77;21.50;;;;;;;26.40;63.08;99409.91;5072568;28;20027;-78
2021/06/26 07:05:16;;;;;;;25.63;21.58;;;;;;;26.79;63.12;99466.69;5072402;28;20394;-78
2021/06/26 07:07:41;;;;;;;20.90;14.23;;;;;;;26.76;62.71;99494.34;5072580;28;20024;-76
2021/06/26 07:10:07;;;;;;;16.75;13.68;;;;;;;26.65;62.21;99520.69;5072354;28;20499;-77
2021/06/26 07:12:33;;;;;;;18.05;13.80;;;;;;;26.66;62.44;99529.63;5073532;28;20411;-76
2021/06/26 07:14:58;;;;;;;15.45;10.80;;;;;;;26.52;61.96;99534.88;5070844;28;20024;-77
2021/06/26 07:17:24;;;;;;;15.65;9.02;;;;;;;26.30;61.17;99500.09;5072279;28;20028;-77
2021/06/26 07:19:49;;;;;;;19.60;10.90;;;;;;;26.38;61.47;99526.59;5072294;28;20031;-77
2021/06/26 07:22:14;;;;;;;14.30;8.73;;;;;;;26.06;61.04;99474.84;5070959;28;20028;-77
2021/06/26 07:24:40;;;;;;;16.13;8.98;;;;;;;26.30;60.79;99508.22;5072553;28;20036;-77
2021/06/26 07:27:06;;;;;;;15.93;9.13;;;;;;;25.73;61.06;99422.28;5071923;28;20039;-78
2021/06/26 07:29:31;;;;;;;15.50;9.55;;;;;;;26.08;60.66;99476.19;5071400;28;20086;-78
2021/06/26 07:31:57;;;;;;;14.60;7.75;;;;;;;26.35;60.11;99513.63;5071981;28;20056;-77
2021/06/26 07:34:22;;;;;;;12.95;7.85;;;;;;;26.22;60.07;99489.88;5072135;28;20051;-77
2021/06/26 07:36:48;;;;;;;12.40;6.65;;;;;;;26.32;59.44;99514.16;5070795;28;20035;-77
2021/06/26 07:39:13;;;;;;;12.65;8.00;;;;;;;26.42;60.01;99532.25;5072025;28;20093;-77
2021/06/26 07:41:39;;;;;;;17.52;7.55;;;;;;;26.46;58.84;99514.34;5071858;28;20032;-77
2021/06/26 07:44:04;;;;;;;13.18;6.07;;;;;;;25.92;58.62;99418.63;5071685;28;20061;-77
2021/06/26 07:46:30;;;;;;;10.75;5.18;;;;;;;26.10;57.97;99455.06;5071715;28;20028;-78
2021/06/26 07:48:55;;;;;;;9.65;4.95;;;;;;;26.44;58.03;99484.06;5071618;28;20028;-78
2021/06/26 07:51:21;;;;;;;9.73;5.38;;;;;;;25.87;57.81;99399.72;5071444;28;20028;-77
2021/06/26 07:53:47;;;;;;;12.00;6.03;;;;;;;26.14;58.19;99433.66;5071676;28;20034;-77
2021/06/26 07:56:12;;;;;;;11.48;5.88;;;;;;;26.51;57.31;99498.88;5071453;28;20024;-77
2021/06/26 07:58:38;;;;;;;13.52;6.43;;;;;;;26.10;57.13;99432.59;5071885;28;20042;-77
2021/06/26 08:01:03;;;;;;;14.38;5.70;;;;;;;26.02;57.51;99439.41;5070415;28;20404;-77
2021/06/26 08:03:29;;;;;;;10.73;6.07;;;;;;;26.12;57.77;99449.34;5071182;28;20581;-77
2021/06/26 08:05:55;;;;;;;12.27;6.20;;;;;;;26.08;57.68;99429.38;5071298;28;20465;-77
2021/06/26 08:08:21;;;;;;;10.20;5.95;;;;;;;26.41;57.43;99457.53;5070081;28;20024;-77
2021/06/26 08:10:48;;;;;;;13.30;6.82;;;;;;;26.17;57.33;99396.00;5071293;28;20463;-78
2021/06/26 08:13:14;;;;;;;10.18;6.18;;;;;;;26.18;57.50;99391.41;5071566;28;20116;-76
2021/06/26 08:15:43;;;;;;;9.63;5.95;;;;;;;26.32;57.24;99402.38;5071361;28;20099;-77
2021/06/26 08:18:10;;;;;;;13.02;6.38;;;;;;;26.69;56.76;99456.72;5071503;28;20056;-78
2021/06/26 08:20:37;;;;;;;14.93;7.22;;;;;;;26.74;57.01;99474.84;5071308;28;20107;-75
2021/06/26 08:23:03;;;;;;;14.57;7.00;;;;;;;26.80;56.47;99482.66;5071344;28;20033;-76
2021/06/26 08:25:29;;;;;;;11.50;6.68;;;;;;;26.87;56.58;99485.03;5071190;28;20056;-78
2021/06/26 08:27:55;;;;;;;13.15;7.22;;;;;;;26.51;55.98;99438.50;5069916;28;20063;-76
2021/06/26 08:30:21;;;;;;;11.40;6.78;;;;;;;26.77;56.08;99477.00;5071307;28;20465;-77
2021/06/26 08:32:47;;;;;;;12.52;7.13;;;;;;;26.45;56.28;99435.03;5071118;28;20036;-76
2021/06/26 08:35:14;;;;;;;14.52;7.57;;;;;;;26.54;56.47;99440.63;5071272;28;20025;-77
2021/06/26 08:37:40;;;;;;;12.85;7.68;;;;;;;26.61;56.58;99465.47;5071090;28;20028;-78
2021/06/26 08:40:07;;;;;;;17.48;8.68;;;;;;;26.43;56.69;99436.41;5071094;28;20417;-77
2021/06/26 08:42:33;;;;;;;16.85;7.78;;;;;;;26.36;57.14;99434.03;5073799;28;20570;-77
2021/06/26 08:45:01;;;;;;;13.13;7.72;;;;;;;26.55;56.73;99453.88;5073771;28;20028;-77
2021/06/26 08:47:27;;;;;;;13.77;8.23;;;;;;;26.64;56.96;99447.84;5075159;28;20104;-78
2021/06/26 08:49:53;;;;;;;16.30;8.65;;;;;;;26.47;56.73;99405.78;5073893;28;20466;-78
2021/06/26 08:52:18;;;;;;;14.98;8.27;;;;;;;26.72;56.15;99420.94;5073793;28;20033;-77
2021/06/26 08:54:44;;;;;;;12.75;6.97;;;;;;;26.65;56.02;99419.69;5075186;28;20032;-77
2021/06/26 08:57:09;;;;;;;16.80;7.88;;;;;;;26.64;55.97;99442.44;5075038;28;20492;-78
2021/06/26 08:59:35;;;;;;;14.07;7.95;;;;;;;26.52;55.75;99440.91;5075115;28;20052;-78
2021/06/26 09:02:01;;;;;;;14.32;8.15;;;;;;;26.63;55.84;99449.75;5074825;28;20028;-77
2021/06/26 09:04:27;;;;;;;11.48;7.68;;;;;;;26.90;55.60;99468.19;5074578;28;20074;-76
2021/06/26 09:06:57;;;;;;;13.70;8.20;;;;;;;27.12;55.47;99470.44;5074491;28;20461;-76
2021/06/26 09:09:36;;;;;;;18.33;8.60;;;;;;;26.98;55.35;99423.44;5074706;28;20046;-76
2021/06/26 09:12:02;;;;;;;13.82;8.07;;;;;;;27.46;55.18;99465.66;5074606;28;20027;-78
2021/06/26 09:14:27;;;;;;;14.63;7.63;;;;;;;27.60;54.30;99459.56;5074486;28;20032;-75
2021/06/26 09:16:53;;;;;;;13.93;7.38;;;;;;;27.67;53.97;99479.00;5074481;28;20020;-75
2021/06/26 09:19:19;;;;;;;14.43;8.50;;;;;;;27.71;54.12;99491.69;5074444;28;20052;-77
2021/06/26 09:22:12;;;;;;;13.95;8.05;;;;;;;27.35;54.38;99414.56;5073134;28;20547;-76
2021/06/26 09:24:48;;;;;;;17.85;9.00;;;;;;;27.73;54.11;99458.84;5073275;28;20039;-82
2021/06/26 09:27:15;;;;;;;16.13;8.93;;;;;;;27.68;54.17;99445.38;5074457;28;20077;-82
2021/06/26 09:29:52;;;;;;;11.88;8.05;;;;;;;27.68;54.34;99431.81;5074475;28;20025;-81
2021/06/26 09:32:23;;;;;;;12.70;8.40;;;;;;;27.41;54.23;99380.88;5074246;28;20527;-82
2021/06/26 09:34:49;;;;;;;14.48;8.50;;;;;;;27.70;53.96;99430.41;5072957;28;20024;-79
2021/06/26 09:37:23;;;;;;;16.95;8.77;;;;;;;27.42;54.06;99374.34;5074384;28;20024;-82
2021/06/26 09:39:55;;;;;;;12.23;8.27;;;;;;;27.82;53.81;99419.13;5074329;28;20113;-82
2021/06/26 09:42:30;;;;;;;13.77;8.77;;;;;;;27.31;53.92;99310.53;5072790;28;20031;-81
2021/06/26 09:45:08;;;;;;;12.55;7.82;;;;;;;28.01;53.13;99397.38;5074041;28;20024;-82
2021/06/26 09:47:35;;;;;;;12.30;7.78;;;;;;;28.07;52.65;99391.56;5073945;28;20036;-80
2021/06/26 09:50:18;;;;;;;15.00;7.85;;;;;;;28.12;52.71;99398.81;5073813;28;20028;-82
2021/06/26 09:52:49;;;;;;;12.70;7.25;;;;;;;27.82;52.08;99308.66;5071977;28;20531;-82
2021/06/26 09:55:17;;;;;;;13.88;7.30;;;;;;;28.55;51.52;99395.94;5072449;28;20562;-82
2021/06/26 09:57:43;;;;;;;15.35;7.43;;;;;;;28.76;50.70;99403.41;5072568;28;20438;-83
2021/06/26 10:00:09;;;;;;;14.32;7.93;;;;;;;28.62;49.81;99345.56;5075774;28;20069;-84
2021/06/26 10:02:35;;;;;;;12.45;8.43;;;;;;;29.18;48.69;99393.38;5075928;28;20058;-83
2021/06/26 10:05:02;;;;;;;12.70;7.75;;;;;;;29.25;48.28;99368.50;5073680;28;20028;-83
2021/06/26 10:07:33;;;;;;;17.50;10.50;;;;;;;29.24;47.58;99326.91;5073573;28;20455;-83
2021/06/26 10:09:59;;;;;;;9.47;7.10;;;;;;;29.90;46.88;99376.28;5073488;28;20043;-80
2021/06/26 10:12:26;;;;;;;14.93;7.60;;;;;;;30.15;45.15;99381.13;5073563;28;20502;-82
2021/06/26 10:14:54;;;;;;;11.32;6.30;;;;;;;29.97;44.43;99336.63;5073444;28;20024;-83
2021/06/26 10:17:21;;;;;;;9.55;6.20;;;;;;;30.27;43.76;99337.78;5073460;28;20191;-83
2021/06/26 10:19:48;;;;;;;18.98;14.00;;;;;;;30.74;43.46;99360.00;5073643;28;20024;-84
2021/06/26 10:22:14;;;;;;;10.85;5.38;;;;;;;30.90;42.82;99341.28;5073391;28;20093;-81
2021/06/26 10:24:42;;;;;;;9.27;4.93;;;;;;;31.36;41.46;99381.69;5073358;28;20467;-83
2021/06/26 10:27:21;;;;;;;15.20;8.13;;;;;;;31.53;41.00;99365.31;5073088;28;20038;-83
2021/06/26 10:29:47;;;;;;;8.80;5.78;;;;;;;31.84;40.06;99369.81;5076818;28;20029;-82
2021/06/26 10:32:15;;;;;;;22.73;16.58;;;;;;;32.15;39.61;99375.91;5072341;28;20052;-81
2021/06/26 10:34:49;;;;;;;16.20;12.95;;;;;;;32.54;39.27;99371.31;5071675;28;20024;-83
2021/06/26 10:37:19;;;;;;;17.73;12.73;;;;;;;32.42;38.86;99327.47;5072979;28;20024;-82
2021/06/26 10:39:46;;;;;;;39.30;35.15;;;;;;;32.84;38.02;99381.19;5071782;28;20031;-82
2021/06/26 10:42:14;;;;;;;24.35;20.52;;;;;;;32.52;37.86;99310.69;5071924;28;20025;-83
2021/06/26 10:44:40;;;;;;;19.75;12.07;;;;;;;32.97;38.04;99362.13;5072076;28;20024;-81
2021/06/26 10:47:05;;;;;;;22.95;18.65;;;;;;;32.80;37.86;99298.22;5072889;28;20024;-82
2021/06/26 10:49:30;;;;;;;11.10;6.93;;;;;;;33.43;37.40;99342.03;5073126;28;20021;-84
2021/06/26 10:52:08;;;;;;;9.50;6.82;;;;;;;33.41;37.38;99311.47;5073101;28;20017;-83
2021/06/26 10:54:35;;;;;;;10.02;6.43;;;;;;;33.58;37.20;99322.28;5072795;28;20020;-83
2021/06/26 10:57:05;;;;;;;9.27;5.90;;;;;;;33.18;37.31;99237.09;5071387;28;20028;-83
2021/06/26 10:59:30;;;;;;;12.82;6.82;;;;;;;34.08;36.69;99335.03;5072835;28;20024;-82
2021/06/26 11:02:03;;;;;;;19.67;15.65;;;;;;;34.07;36.46;99328.75;5072536;28;20477;-83
2021/06/26 11:04:29;;;;;;;12.57;7.50;;;;;;;34.01;36.23;99282.72;5072011;28;20141;-83
2021/06/26 11:07:10;;;;;;;11.38;6.32;;;;;;;34.15;35.33;99268.72;5072788;28;20029;-83
2021/06/26 11:09:39;;;;;;;10.57;5.57;;;;;;;34.79;35.48;99320.97;5072756;28;20025;-84
2021/06/26 11:12:19;;;;;;;11.25;5.35;;;;;;;34.90;34.89;99318.59;5072402;28;20056;-82
2021/06/26 11:14:56;;;;;;;10.07;5.22;;;;;;;34.98;34.02;99303.97;5072629;28;20470;-81
2021/06/26 11:17:33;;;;;;;8.25;4.40;;;;;;;34.73;33.93;99251.84;5072712;28;20027;-83
2021/06/26 11:19:58;;;;;;;10.77;4.45;;;;;;;34.71;34.31;99212.97;5072151;28;20107;-82